Terminal Aerodrome Forecast
Issued by NWS Charleston, WV

Current Version | Previous Version | Graphics & Text | Print | Product List | Glossary On
Versions: 1 2 3 4 5 6 7 8 9 10 11 12 13 14 15 16 17 18 19 20 21 22 23 24
814
FTUS41 KRLX 301730
TAFCRW
TAF
KCRW 301730Z 3018/0118 18006KT 6SM -RA SCT030 OVC080
      TEMPO 3018/3022 3SM SHRA BR OVC030
     FM302200 20005KT P6SM OVC120
     FM010100 23007G18KT P6SM VCSH BKN025
     FM010200 25007KT P6SM BKN060
     FM010300 25008G16KT P6SM BKN120=

USA.gov is the U.S. government's official web portal to all federal, state and local government web resources and services.